createdAt,value
2017-05-10T00:01:58.975Z,7.30
2017-05-10T00:04:27.623Z,7.50
2017-05-10T00:06:56.267Z,7.50
2017-05-10T00:09:24.523Z,7.50
2017-05-10T00:11:53.167Z,7.60
2017-05-10T00:14:21.810Z,7.60
2017-05-10T00:16:50.485Z,7.60
2017-05-10T00:19:18.732Z,7.60
2017-05-10T00:21:47.378Z,7.80
2017-05-10T00:24:15.670Z,7.80
2017-05-10T00:26:44.314Z,7.80
2017-05-10T00:29:13.334Z,7.70
2017-05-10T00:31:42.000Z,7.70
2017-05-10T00:34:11.011Z,7.50
2017-05-10T00:36:39.659Z,7.80
2017-05-10T00:39:08.579Z,7.40
2017-05-10T00:41:37.301Z,7.30
2017-05-10T00:44:05.950Z,7.30
2017-05-10T00:46:34.635Z,7.40
2017-05-10T00:49:03.270Z,7.40
2017-05-10T00:51:31.913Z,7.40
2017-05-10T00:54:00.673Z,7.40
2017-05-10T00:56:29.312Z,7.30
2017-05-10T00:58:57.952Z,7.30
2017-05-10T01:01:26.771Z,7.30
2017-05-10T01:03:55.418Z,7.40
2017-05-10T01:06:24.077Z,7.40
2017-05-10T01:08:53.019Z,7.60
2017-05-10T01:11:21.660Z,7.50
2017-05-10T01:13:50.654Z,7.40
2017-05-10T01:16:19.705Z,7.60
2017-05-10T01:18:48.342Z,7.50
2017-05-10T01:21:16.978Z,7.70
2017-05-10T01:23:45.666Z,7.80
2017-05-10T01:26:14.303Z,7.70
2017-05-10T01:28:42.947Z,7.80
2017-05-10T01:31:11.463Z,7.70
2017-05-10T01:33:40.095Z,7.60
2017-05-10T01:36:08.740Z,7.80
2017-05-10T01:38:37.428Z,7.50
2017-05-10T01:41:06.063Z,7.60
2017-05-10T01:43:34.315Z,7.60
2017-05-10T01:46:02.992Z,7.60
2017-05-10T01:48:31.634Z,7.80
2017-05-10T01:51:00.279Z,7.70
2017-05-10T01:53:28.955Z,7.50
2017-05-10T01:55:57.602Z,7.50
2017-05-10T01:58:26.252Z,7.70
2017-05-10T02:00:55.306Z,7.90
2017-05-10T02:03:23.959Z,7.80
2017-05-10T02:05:52.600Z,7.50
2017-05-10T02:08:21.630Z,7.50
2017-05-10T02:10:49.880Z,7.40
2017-05-10T02:13:18.519Z,7.70
2017-05-10T02:15:47.037Z,7.70
2017-05-10T02:18:15.682Z,7.50
2017-05-10T02:20:44.326Z,7.70
2017-05-10T02:23:13.192Z,8.00
2017-05-10T02:25:42.017Z,8.00
2017-05-10T02:28:10.654Z,7.80
2017-05-10T02:30:39.244Z,7.80
2017-05-10T02:33:08.260Z,7.80
2017-05-10T02:35:36.907Z,7.80
2017-05-10T02:38:05.279Z,7.80
2017-05-10T02:40:34.291Z,7.60
2017-05-10T02:43:02.942Z,7.60
2017-05-10T02:45:31.609Z,7.70
2017-05-10T02:48:00.246Z,7.70
2017-05-10T02:50:28.894Z,7.50
2017-05-10T02:52:57.922Z,7.50
2017-05-10T02:55:26.554Z,7.70
2017-05-10T02:57:54.807Z,7.70
2017-05-10T03:00:23.483Z,7.40
2017-05-10T03:02:52.127Z,7.40
2017-05-10T03:05:20.771Z,7.40
2017-05-10T03:07:49.419Z,7.40
2017-05-10T03:10:18.058Z,7.40
2017-05-10T03:12:46.304Z,7.50
2017-05-10T03:15:14.969Z,7.50
2017-05-10T03:17:43.616Z,7.50
2017-05-10T03:20:11.862Z,7.50
2017-05-10T03:22:40.799Z,7.70
2017-05-10T03:25:09.441Z,7.80
2017-05-10T03:27:38.233Z,7.80
2017-05-10T03:30:06.974Z,7.70
2017-05-10T03:32:35.220Z,7.70
2017-05-10T03:35:03.857Z,7.60
2017-05-10T03:37:32.784Z,7.70
2017-05-10T03:40:01.809Z,7.60
2017-05-10T03:42:30.451Z,7.80
2017-05-10T03:44:59.662Z,7.90
2017-05-10T03:47:27.910Z,7.90
2017-05-10T03:49:56.567Z,7.80
2017-05-10T03:52:25.231Z,7.80
2017-05-10T03:54:53.870Z,7.80
2017-05-10T03:57:22.119Z,7.80
2017-05-10T03:59:50.786Z,7.70
2017-05-10T04:02:19.434Z,7.90
2017-05-10T04:04:48.086Z,7.80
2017-05-10T04:07:16.846Z,7.80
2017-05-10T04:09:45.486Z,7.70
2017-05-10T04:12:14.141Z,7.70
2017-05-10T04:14:43.285Z,7.60
2017-05-10T04:17:11.534Z,7.60
2017-05-10T04:19:40.178Z,7.60
2017-05-10T04:22:08.596Z,7.60
2017-05-10T04:24:37.343Z,7.50
2017-05-10T04:27:05.614Z,7.50
2017-05-10T04:29:34.847Z,7.60
2017-05-10T04:32:03.522Z,7.70
2017-05-10T04:34:32.320Z,7.90
2017-05-10T04:37:01.166Z,7.70
2017-05-10T04:39:29.451Z,7.70
2017-05-10T04:41:58.134Z,7.60
2017-05-10T04:44:26.977Z,7.40
2017-05-10T04:46:55.623Z,7.50
2017-05-10T04:49:24.264Z,7.50
2017-05-10T04:51:52.938Z,7.40
2017-05-10T04:54:21.586Z,7.30
2017-05-10T04:56:49.834Z,7.30
2017-05-10T04:59:18.874Z,7.40
2017-05-10T05:01:47.517Z,7.30
2017-05-10T05:04:16.537Z,7.30
2017-05-10T05:06:44.970Z,7.30
2017-05-10T05:09:13.606Z,7.70
2017-05-10T05:11:42.246Z,7.70
2017-05-10T05:14:11.291Z,7.70
2017-05-10T05:16:39.932Z,7.80
2017-05-10T05:19:08.183Z,7.90
2017-05-10T05:21:36.999Z,7.90
2017-05-10T05:24:05.633Z,7.90
2017-05-10T05:26:34.266Z,8.20
2017-05-10T05:29:03.098Z,8.00
2017-05-10T05:31:31.746Z,8.10
2017-05-10T05:34:00.391Z,8.10
2017-05-10T05:36:29.072Z,8.10
2017-05-10T05:38:57.715Z,8.30
2017-05-10T05:41:26.018Z,8.30
2017-05-10T05:43:54.778Z,8.20
2017-05-10T05:46:23.423Z,8.70
2017-05-10T05:48:52.080Z,8.80
2017-05-10T05:51:21.009Z,8.60
2017-05-10T05:53:49.253Z,8.60
2017-05-10T05:56:17.895Z,8.30
2017-05-10T05:58:46.555Z,8.10
2017-05-10T06:01:14.815Z,8.10
2017-05-10T06:03:43.067Z,8.20
2017-05-10T06:06:11.890Z,8.30
2017-05-10T06:08:40.522Z,8.30
2017-05-10T06:11:09.290Z,8.00
2017-05-10T06:13:37.964Z,8.00
2017-05-10T06:16:07.098Z,7.90
2017-05-10T06:18:35.748Z,7.80
2017-05-10T06:21:04.763Z,7.80
2017-05-10T06:23:33.389Z,8.00
2017-05-10T06:26:02.043Z,8.20
2017-05-10T06:28:31.131Z,8.10
2017-05-10T06:30:59.846Z,8.00
2017-05-10T06:33:29.128Z,8.00
2017-05-10T06:35:58.182Z,8.00
2017-05-10T06:38:27.128Z,8.00
2017-05-10T06:40:55.778Z,8.20
2017-05-10T06:43:24.454Z,8.50
2017-05-10T06:45:52.715Z,8.50
2017-05-10T06:48:21.427Z,8.60
2017-05-10T06:50:49.872Z,8.70
2017-05-10T06:53:18.517Z,8.30
2017-05-10T06:55:47.167Z,8.70
2017-05-10T06:58:15.846Z,8.50
2017-05-10T07:00:44.494Z,8.10
2017-05-10T07:03:12.734Z,8.10
2017-05-10T07:05:41.408Z,8.20
2017-05-10T07:08:10.415Z,8.30
2017-05-10T07:10:38.838Z,8.30
2017-05-10T07:13:07.499Z,8.50
2017-05-10T07:15:39.963Z,8.60
2017-05-10T07:18:09.465Z,8.60
2017-05-10T07:20:38.113Z,8.50
2017-05-10T07:23:07.119Z,8.40
2017-05-10T07:25:35.866Z,8.70
2017-05-10T07:28:04.504Z,8.40
2017-05-10T07:30:33.139Z,8.40
2017-05-10T07:33:02.258Z,8.80
2017-05-10T07:35:31.517Z,8.80
2017-05-10T07:38:01.624Z,8.80
2017-05-10T07:40:30.266Z,9.10
2017-05-10T07:42:58.522Z,9.10
2017-05-10T07:45:27.552Z,8.70
2017-05-10T07:47:56.225Z,9.00
2017-05-10T07:50:24.865Z,9.10
2017-05-10T07:52:53.535Z,9.40
2017-05-10T07:55:22.203Z,9.40
2017-05-10T07:57:50.838Z,9.60
2017-05-10T08:00:19.839Z,9.60
2017-05-10T08:02:48.516Z,9.70
2017-05-10T08:05:17.521Z,9.90
2017-05-10T08:07:46.161Z,10.00
2017-05-10T08:10:15.177Z,10.20
2017-05-10T08:12:44.185Z,10.00
2017-05-10T08:15:12.444Z,10.00
2017-05-10T08:17:41.123Z,9.20
2017-05-10T08:20:10.126Z,9.00
2017-05-10T08:22:39.136Z,8.80
2017-05-10T08:25:07.864Z,8.70
2017-05-10T08:27:36.486Z,8.60
2017-05-10T08:30:05.140Z,8.70
2017-05-10T08:32:34.231Z,9.00
2017-05-10T08:35:02.873Z,9.10
2017-05-10T08:37:32.671Z,9.00
2017-05-10T08:40:01.456Z,9.30
2017-05-10T08:42:30.097Z,9.30
2017-05-10T08:44:58.731Z,9.50
2017-05-10T08:47:27.192Z,9.50
2017-05-10T08:49:55.827Z,9.10
2017-05-10T08:52:24.081Z,9.20
2017-05-10T08:54:52.757Z,9.40
2017-05-10T08:57:21.405Z,9.30
2017-05-10T08:59:49.644Z,9.30
2017-05-10T09:02:18.974Z,9.90
2017-05-10T09:04:48.447Z,10.20
2017-05-10T09:07:17.089Z,10.40
2017-05-10T09:09:45.368Z,10.40
2017-05-10T09:12:13.624Z,10.70
2017-05-10T09:14:42.263Z,10.80
2017-05-10T09:17:11.183Z,10.90
2017-05-10T09:19:39.830Z,11.20
2017-05-10T09:22:08.471Z,11.30
2017-05-10T09:24:37.344Z,10.50
2017-05-10T09:27:05.982Z,10.10
2017-05-10T09:29:34.622Z,10.40
2017-05-10T09:32:03.182Z,10.40
2017-05-10T09:34:31.436Z,9.90
2017-05-10T09:37:00.072Z,9.90
2017-05-10T09:39:28.832Z,9.80
2017-05-10T09:41:57.839Z,10.00
2017-05-10T09:44:26.474Z,9.90
2017-05-10T09:46:55.147Z,9.80
2017-05-10T09:49:23.783Z,10.10
2017-05-10T09:51:52.426Z,10.20
2017-05-10T09:54:21.257Z,10.60
2017-05-10T09:56:49.898Z,10.50
2017-05-10T09:59:18.552Z,9.80
2017-05-10T10:01:47.386Z,9.80
2017-05-10T10:04:16.404Z,10.00
2017-05-10T10:06:45.050Z,10.10
2017-05-10T10:09:13.790Z,10.10
2017-05-10T10:11:42.436Z,10.20
2017-05-10T10:14:11.448Z,10.30
2017-05-10T10:16:41.038Z,10.30
2017-05-10T10:19:09.673Z,9.90
2017-05-10T10:21:38.314Z,10.00
2017-05-10T10:24:06.981Z,10.20
2017-05-10T10:26:35.619Z,10.20
2017-05-10T10:29:04.259Z,10.60
2017-05-10T10:31:32.526Z,10.60
2017-05-10T10:34:01.171Z,10.60
2017-05-10T10:36:29.811Z,10.40
2017-05-10T10:38:58.369Z,10.40
2017-05-10T10:41:27.378Z,10.10
2017-05-10T10:43:55.630Z,10.10
2017-05-10T10:46:25.587Z,10.10
2017-05-10T10:48:54.223Z,10.00
2017-05-10T10:51:22.867Z,10.10
2017-05-10T10:53:51.545Z,10.00
2017-05-10T10:56:20.177Z,10.10
2017-05-10T10:58:48.810Z,9.60
2017-05-10T11:01:17.756Z,9.30
2017-05-10T11:03:46.390Z,9.30
2017-05-10T11:06:15.023Z,9.30
2017-05-10T11:08:43.816Z,9.30
2017-05-10T11:11:12.472Z,9.20
2017-05-10T11:13:40.715Z,9.20
2017-05-10T11:16:09.384Z,9.20
2017-05-10T11:18:38.028Z,9.30
2017-05-10T11:21:06.283Z,9.30
2017-05-10T11:23:34.784Z,9.60
2017-05-10T11:26:03.021Z,9.40
2017-05-10T11:28:31.650Z,9.20
2017-05-10T11:31:00.322Z,9.30
2017-05-10T11:33:28.958Z,9.30
2017-05-10T11:35:57.613Z,9.50
2017-05-10T11:38:26.677Z,9.40
2017-05-10T11:40:55.679Z,9.70
2017-05-10T11:43:23.932Z,9.70
2017-05-10T11:45:52.987Z,9.90
2017-05-10T11:48:21.638Z,9.80
2017-05-10T11:50:50.288Z,9.90
2017-05-10T11:53:20.146Z,10.00
2017-05-10T11:55:48.783Z,10.60
2017-05-10T11:58:17.800Z,10.40
2017-05-10T12:00:46.468Z,10.60
2017-05-10T12:03:33.129Z,10.60
2017-05-10T12:06:08.111Z,10.60
2017-05-10T12:08:36.752Z,10.60
2017-05-10T12:11:05.012Z,10.60
2017-05-10T12:13:33.960Z,10.00
2017-05-10T12:16:02.616Z,10.00
2017-05-10T12:18:31.258Z,10.10
2017-05-10T12:20:59.947Z,9.80
2017-05-10T12:23:28.813Z,9.60
2017-05-10T12:25:57.458Z,9.60
2017-05-10T12:28:26.029Z,9.60
2017-05-10T12:30:54.669Z,9.50
2017-05-10T12:33:22.925Z,9.50
2017-05-10T12:35:51.987Z,9.60
2017-05-10T12:38:20.621Z,9.30
2017-05-10T12:40:49.534Z,9.60
2017-05-10T12:43:18.293Z,9.80
2017-05-10T12:45:46.531Z,9.90
2017-05-10T12:48:14.780Z,9.50
2017-05-10T12:50:43.490Z,9.50
2017-05-10T12:53:12.495Z,9.40
2017-05-10T12:55:40.747Z,9.40
2017-05-10T12:58:09.787Z,9.60
2017-05-10T13:00:38.429Z,9.70
2017-05-10T13:03:07.080Z,9.80
2017-05-10T13:05:35.786Z,9.80
2017-05-10T13:08:04.410Z,9.80
2017-05-10T13:10:33.059Z,9.80
2017-05-10T13:13:02.120Z,10.00
2017-05-10T13:15:30.780Z,10.30
2017-05-10T13:17:59.430Z,10.40
2017-05-10T13:20:28.483Z,10.80
2017-05-10T13:22:57.141Z,11.10
2017-05-10T13:25:25.896Z,11.00
2017-05-10T13:27:54.441Z,11.00
2017-05-10T13:30:22.706Z,11.30
2017-05-10T13:32:51.459Z,12.60
2017-05-10T13:35:19.729Z,12.60
2017-05-10T13:37:47.986Z,13.00
2017-05-10T13:40:16.636Z,11.90
2017-05-10T13:42:45.683Z,11.90
2017-05-10T13:45:14.827Z,11.40
2017-05-10T13:47:43.089Z,11.20
2017-05-10T13:50:11.838Z,11.20
2017-05-10T13:52:41.250Z,10.60
2017-05-10T13:55:09.907Z,10.50
2017-05-10T13:57:38.194Z,10.50
2017-05-10T14:00:06.862Z,10.80
2017-05-10T14:02:35.499Z,10.80
2017-05-10T14:05:04.436Z,10.90
2017-05-10T14:07:33.086Z,11.10
2017-05-10T14:10:02.138Z,11.00
2017-05-10T14:12:30.999Z,11.00
2017-05-10T14:14:59.650Z,10.70
2017-05-10T14:17:28.311Z,10.40
2017-05-10T14:19:57.165Z,10.60
2017-05-10T14:22:25.807Z,10.40
2017-05-10T14:24:54.068Z,10.40
2017-05-10T14:27:22.832Z,10.70
2017-05-10T14:29:51.489Z,10.30
2017-05-10T14:32:20.134Z,10.00
2017-05-10T14:34:49.192Z,9.90
2017-05-10T14:37:18.108Z,9.80
2017-05-10T14:39:46.730Z,10.10
2017-05-10T14:42:15.830Z,10.20
2017-05-10T14:44:44.055Z,10.20
2017-05-10T14:47:12.694Z,10.40
2017-05-10T14:49:41.360Z,10.50
2017-05-10T14:52:10.003Z,10.40
2017-05-10T14:54:39.217Z,10.60
2017-05-10T14:57:09.227Z,10.70
2017-05-10T14:59:38.263Z,10.60
2017-05-10T15:02:06.766Z,10.60
2017-05-10T15:04:35.415Z,10.20
2017-05-10T15:07:04.081Z,10.10
2017-05-10T15:09:33.086Z,10.30
2017-05-10T15:12:01.762Z,10.50
2017-05-10T15:14:30.408Z,10.40
2017-05-10T15:16:59.057Z,10.50
2017-05-10T15:19:27.373Z,10.50
2017-05-10T15:21:55.986Z,10.90
2017-05-10T15:24:24.234Z,10.90
2017-05-10T15:26:53.374Z,10.30
2017-05-10T15:29:21.632Z,10.30
2017-05-10T15:31:50.273Z,10.90
2017-05-10T15:34:19.549Z,11.00
2017-05-10T15:36:48.232Z,10.90
2017-05-10T15:39:16.878Z,10.80
2017-05-10T15:41:45.740Z,10.50
2017-05-10T15:44:14.617Z,10.60
2017-05-10T15:46:43.273Z,10.50
2017-05-10T15:49:12.099Z,10.50
2017-05-10T15:51:43.542Z,10.50
2017-05-10T15:54:12.201Z,10.60
2017-05-10T15:56:41.308Z,10.80
2017-05-10T15:59:10.864Z,10.70
2017-05-10T16:01:39.553Z,10.70
2017-05-10T16:04:08.204Z,10.80
2017-05-10T16:06:37.226Z,10.70
2017-05-10T16:09:05.535Z,10.70
2017-05-10T16:11:34.207Z,10.90
2017-05-10T16:14:02.872Z,11.10
2017-05-10T16:16:31.546Z,11.00
2017-05-10T16:19:00.194Z,10.90
2017-05-10T16:21:28.846Z,10.90
2017-05-10T16:23:57.780Z,11.00
2017-05-10T16:26:26.805Z,11.00
2017-05-10T16:28:55.453Z,10.80
2017-05-10T16:31:23.949Z,10.80
2017-05-10T16:33:52.608Z,10.80
2017-05-10T16:36:21.248Z,10.80
2017-05-10T16:38:49.917Z,10.70
2017-05-10T16:41:18.558Z,10.70
2017-05-10T16:43:47.580Z,10.50
2017-05-10T16:46:16.635Z,10.50
2017-05-10T16:48:45.285Z,10.60
2017-05-10T16:51:13.922Z,10.80
2017-05-10T16:53:42.846Z,10.70
2017-05-10T16:56:11.482Z,10.50
2017-05-10T16:58:40.489Z,10.80
2017-05-10T17:01:09.165Z,10.60
2017-05-10T17:03:37.417Z,10.60
2017-05-10T17:06:06.084Z,10.80
2017-05-10T17:08:34.761Z,10.70
2017-05-10T17:11:03.423Z,10.80
2017-05-10T17:13:32.062Z,10.90
2017-05-10T17:16:01.389Z,10.90
2017-05-10T17:18:30.027Z,11.00
2017-05-10T17:20:58.700Z,10.80
2017-05-10T17:23:27.365Z,10.80
2017-05-10T17:25:56.933Z,10.80
2017-05-10T17:28:25.681Z,10.80
2017-05-10T17:30:54.322Z,10.90
2017-05-10T17:33:23.966Z,11.00
2017-05-10T17:35:52.615Z,10.90
2017-05-10T17:38:21.254Z,10.80
2017-05-10T17:40:50.570Z,10.70
2017-05-10T17:43:19.209Z,10.30
2017-05-10T17:45:47.885Z,10.40
2017-05-10T17:48:16.566Z,10.50
2017-05-10T17:50:45.198Z,10.70
2017-05-10T17:53:13.444Z,10.70
2017-05-10T17:55:42.106Z,10.70
2017-05-10T17:58:11.124Z,10.60
2017-05-10T18:00:40.592Z,10.50
2017-05-10T18:03:09.141Z,10.50
2017-05-10T18:05:37.780Z,10.50
2017-05-10T18:08:06.749Z,10.50
2017-05-10T18:10:35.434Z,10.50
2017-05-10T18:13:04.090Z,10.50
2017-05-10T18:15:33.211Z,10.50
2017-05-10T18:18:01.906Z,10.80
2017-05-10T18:20:31.165Z,10.60
2017-05-10T18:22:59.814Z,10.40
2017-05-10T18:25:28.869Z,10.30
2017-05-10T18:27:57.529Z,10.20
2017-05-10T18:30:25.788Z,10.20
2017-05-10T18:32:54.478Z,10.20
2017-05-10T18:35:23.482Z,10.00
2017-05-10T18:37:52.138Z,9.90
2017-05-10T18:40:21.547Z,9.90
2017-05-10T18:42:50.565Z,9.70
2017-05-10T18:45:20.190Z,9.80
2017-05-10T18:47:49.594Z,9.70
2017-05-10T18:50:19.226Z,9.60
2017-05-10T18:52:48.062Z,9.60
2017-05-10T18:55:17.156Z,9.60
2017-05-10T18:57:45.813Z,9.80
2017-05-10T19:00:14.475Z,9.70
2017-05-10T19:02:43.500Z,9.80
2017-05-10T19:05:12.150Z,9.70
2017-05-10T19:07:40.812Z,9.80
2017-05-10T19:10:09.490Z,9.80
2017-05-10T19:12:38.166Z,9.90
2017-05-10T19:15:08.062Z,10.30
2017-05-10T19:17:37.244Z,10.40
2017-05-10T19:20:05.929Z,10.40
2017-05-10T19:22:34.601Z,10.00
2017-05-10T19:25:03.280Z,9.90
2017-05-10T19:27:31.542Z,9.90
2017-05-10T19:30:00.188Z,10.10
2017-05-10T19:32:28.894Z,10.10
2017-05-10T19:34:57.536Z,10.10
2017-05-10T19:37:25.783Z,10.10
2017-05-10T19:39:54.480Z,10.00
2017-05-10T19:42:22.749Z,10.00
2017-05-10T19:44:52.387Z,9.90
2017-05-10T19:47:21.071Z,9.90
2017-05-10T19:49:49.976Z,10.00
2017-05-10T19:52:18.617Z,9.90
2017-05-10T19:54:47.613Z,9.80
2017-05-10T19:57:16.255Z,10.00
2017-05-10T19:59:45.278Z,10.00
2017-05-10T20:02:13.970Z,10.00
2017-05-10T20:04:42.876Z,10.00
2017-05-10T20:07:11.538Z,10.00
2017-05-10T20:09:40.482Z,10.00
2017-05-10T20:12:09.682Z,9.90
2017-05-10T20:14:38.550Z,9.90
2017-05-10T20:17:07.219Z,9.90
2017-05-10T20:19:36.350Z,9.70
2017-05-10T20:22:06.177Z,9.70
2017-05-10T20:24:34.935Z,9.70
2017-05-10T20:27:03.171Z,9.70
2017-05-10T20:29:32.093Z,9.90
2017-05-10T20:32:00.773Z,10.10
2017-05-10T20:34:29.576Z,9.90
2017-05-10T20:36:58.446Z,9.90
2017-05-10T20:39:27.787Z,10.00
2017-05-10T20:41:56.430Z,9.80
2017-05-10T20:44:25.085Z,10.00
2017-05-10T20:46:53.757Z,9.90
2017-05-10T20:49:22.400Z,9.80
2017-05-10T20:51:51.035Z,9.90
2017-05-10T20:54:19.864Z,10.00
2017-05-10T20:56:48.518Z,10.00
2017-05-10T20:59:17.181Z,10.10
2017-05-10T21:01:45.866Z,10.00
2017-05-10T21:04:14.503Z,10.00
2017-05-10T21:06:43.510Z,9.90
2017-05-10T21:09:12.815Z,10.00
2017-05-10T21:11:41.836Z,10.00
2017-05-10T21:14:10.083Z,10.00
2017-05-10T21:16:38.374Z,10.00
2017-05-10T21:19:06.627Z,10.10
2017-05-10T21:21:35.271Z,9.90
2017-05-10T21:24:04.225Z,10.00
2017-05-10T21:26:32.876Z,10.00
2017-05-10T21:29:01.146Z,10.00
2017-05-10T21:31:30.470Z,9.90
2017-05-10T21:33:58.699Z,9.90
2017-05-10T21:36:27.350Z,9.70
2017-05-10T21:38:55.634Z,9.70
2017-05-10T21:41:24.276Z,9.60
2017-05-10T21:43:52.521Z,9.60
2017-05-10T21:46:21.498Z,9.50
2017-05-10T21:48:50.153Z,9.40
2017-05-10T21:51:18.805Z,9.40
2017-05-10T21:53:47.085Z,9.40
2017-05-10T21:56:15.728Z,9.40
2017-05-10T21:58:43.980Z,9.40
2017-05-10T22:01:12.832Z,9.30
2017-05-10T22:03:41.842Z,9.30
2017-05-10T22:06:10.729Z,9.30
2017-05-10T22:08:39.392Z,9.20
2017-05-10T22:11:08.045Z,9.20
2017-05-10T22:13:36.678Z,9.20
2017-05-10T22:16:05.660Z,9.20
2017-05-10T22:18:34.295Z,9.10
2017-05-10T22:21:02.936Z,9.10
2017-05-10T22:23:31.606Z,9.00
2017-05-10T22:26:00.256Z,9.00
2017-05-10T22:28:29.280Z,9.10
2017-05-10T22:30:57.973Z,9.10
2017-05-10T22:33:26.619Z,9.10
2017-05-10T22:35:54.880Z,9.10
2017-05-10T22:38:23.811Z,8.90
2017-05-10T22:40:52.447Z,8.80
2017-05-10T22:43:20.706Z,8.80
2017-05-10T22:45:49.388Z,8.70
2017-05-10T22:48:18.014Z,8.70
2017-05-10T22:50:46.675Z,8.70
2017-05-10T22:53:15.357Z,8.80
2017-05-10T22:55:43.619Z,8.80
2017-05-10T22:58:12.273Z,8.70
2017-05-10T23:00:40.938Z,8.70
2017-05-10T23:03:09.574Z,8.60
2017-05-10T23:05:37.814Z,8.70
2017-05-10T23:08:06.501Z,8.60
2017-05-10T23:10:34.755Z,8.50
2017-05-10T23:13:04.195Z,8.70
2017-05-10T23:15:32.849Z,8.60
2017-05-10T23:18:01.506Z,8.40
2017-05-10T23:20:30.530Z,7.90
2017-05-10T23:23:00.121Z,7.80
2017-05-10T23:25:28.767Z,7.80
2017-05-10T23:42:46.123Z,8.10
2017-05-10T23:45:14.765Z,8.30
2017-05-10T23:47:43.786Z,8.40
2017-05-10T23:50:12.096Z,8.40
2017-05-10T23:52:40.743Z,8.40
2017-05-10T23:55:09.386Z,8.40
2017-05-10T23:57:37.679Z,8.40
